Time;durP1;ratioP1;P1;durP2;ratioP2;P2;SDS_P1;SDS_P2;PMS_P1;PMS_P2;Temp;Humidity;BMP_temperature;BMP_pressure;BME280_temperature;BME280_humidity;BME280_pressure;Samples;Min_cycle;Max_cycle;Signal;HPM_P1;HPM_P2
2021/09/09 00:01:16;;;;;;;0.40;0.40;;;18.80;67.10;;;;;;5002710;28;20274;-73
2021/09/09 00:03:44;;;;;;;0.10;0.10;;;18.80;66.90;;;;;;5004465;28;20250;-73
2021/09/09 00:06:11;;;;;;;0.10;0.10;;;18.80;66.80;;;;;;5004481;28;20227;-73
2021/09/09 00:08:38;;;;;;;0.10;0.10;;;18.70;66.80;;;;;;5003137;28;20247;-73
2021/09/09 00:11:06;;;;;;;0.03;0.03;;;18.70;67.00;;;;;;5002848;28;20212;-73
2021/09/09 00:13:33;;;;;;;0.00;0.00;;;18.70;67.20;;;;;;5008450;28;20223;-73
2021/09/09 00:16:00;;;;;;;0.20;0.20;;;18.60;67.20;;;;;;5013228;28;20212;-73
2021/09/09 00:18:28;;;;;;;0.40;0.40;;;18.60;67.30;;;;;;5009660;28;20208;-73
2021/09/09 00:20:55;;;;;;;0.10;0.10;;;18.60;67.70;;;;;;5013166;28;20204;-73
2021/09/09 00:23:22;;;;;;;0.50;0.50;;;18.60;68.30;;;;;;5007037;28;20207;-73
2021/09/09 00:25:49;;;;;;;0.20;0.20;;;18.50;68.90;;;;;;5006721;28;20238;-73
2021/09/09 00:28:16;;;;;;;0.00;0.00;;;18.40;69.20;;;;;;5002633;28;20212;-73
2021/09/09 00:30:43;;;;;;;2.53;0.73;;;18.30;69.30;;;;;;5006089;28;20633;-73
2021/09/09 00:33:11;;;;;;;0.10;0.10;;;18.30;69.40;;;;;;5004570;28;20910;-73
2021/09/09 00:35:39;;;;;;;0.43;0.43;;;18.30;69.40;;;;;;5004162;28;20244;-73
2021/09/09 00:38:06;;;;;;;0.10;0.10;;;18.30;69.40;;;;;;5005491;28;20303;-73
2021/09/09 00:40:33;;;;;;;0.10;0.10;;;18.30;69.40;;;;;;5001602;28;20228;-73
2021/09/09 00:43:00;;;;;;;0.30;0.30;;;18.30;69.60;;;;;;5006761;28;20212;-73
2021/09/09 00:45:27;;;;;;;0.10;0.10;;;18.20;69.90;;;;;;5007429;28;20630;-73
2021/09/09 00:47:56;;;;;;;0.00;0.00;;;18.20;70.10;;;;;;5005839;28;20231;-73
2021/09/09 00:50:23;;;;;;;0.10;0.10;;;18.20;70.30;;;;;;5002856;28;20231;-73
2021/09/09 00:52:52;;;;;;;0.50;0.50;;;18.20;70.30;;;;;;5003848;28;20644;-73
2021/09/09 00:55:20;;;;;;;0.10;0.10;;;18.20;70.20;;;;;;5012771;28;20220;-73
2021/09/09 00:57:48;;;;;;;0.00;0.00;;;18.20;70.20;;;;;;5004663;28;20287;-73
2021/09/09 01:00:16;;;;;;;0.10;0.10;;;18.20;70.00;;;;;;5002891;28;20220;-73
2021/09/09 01:02:43;;;;;;;0.97;0.97;;;18.20;70.10;;;;;;5008404;28;20215;-73
2021/09/09 01:05:11;;;;;;;0.10;0.10;;;18.10;71.00;;;;;;5004409;28;20216;-73
2021/09/09 01:07:40;;;;;;;0.73;0.73;;;18.10;70.90;;;;;;5001856;28;20672;-73
2021/09/09 01:10:07;;;;;;;0.10;0.10;;;18.00;70.50;;;;;;5013081;28;20303;-73
2021/09/09 01:12:36;;;;;;;1.20;1.10;;;17.80;70.80;;;;;;5001902;28;20211;-73
2021/09/09 01:15:04;;;;;;;0.17;0.17;;;17.80;70.90;;;;;;5010686;28;20238;-73
2021/09/09 01:17:32;;;;;;;0.00;0.00;;;17.80;70.90;;;;;;5001796;28;20326;-73
2021/09/09 01:19:59;;;;;;;0.17;0.17;;;17.80;71.40;;;;;;5005709;28;20216;-73
2021/09/09 01:22:26;;;;;;;0.93;0.93;;;17.80;71.70;;;;;;5002700;28;20609;-73
2021/09/09 01:24:53;;;;;;;0.20;0.20;;;17.80;71.70;;;;;;5004016;28;20215;-73
2021/09/09 01:27:20;;;;;;;0.10;0.10;;;17.80;72.40;;;;;;5003717;28;20250;-73
2021/09/09 01:29:48;;;;;;;0.60;0.60;;;17.70;72.10;;;;;;5009227;28;20217;-73
2021/09/09 01:32:17;;;;;;;0.20;0.20;;;17.70;72.10;;;;;;5004751;28;20246;-73
2021/09/09 01:34:44;;;;;;;0.53;0.53;;;17.70;72.20;;;;;;5004026;28;20221;-73
2021/09/09 01:37:12;;;;;;;0.10;0.10;;;17.70;72.10;;;;;;5009645;28;20224;-73
2021/09/09 01:39:45;;;;;;;0.87;0.87;;;17.80;72.20;;;;;;5005517;28;20671;-73
2021/09/09 01:42:12;;;;;;;0.00;0.00;;;17.80;72.40;;;;;;5014940;28;20598;-73
2021/09/09 01:44:40;;;;;;;0.10;0.10;;;17.80;72.20;;;;;;5004495;28;20248;-73
2021/09/09 01:47:07;;;;;;;0.83;0.83;;;17.70;71.90;;;;;;5009947;28;20824;-73
2021/09/09 01:49:34;;;;;;;0.10;0.10;;;17.70;71.80;;;;;;5006446;28;20208;-73
2021/09/09 01:52:01;;;;;;;15.40;0.77;;;17.70;71.80;;;;;;5003239;28;20636;-73
2021/09/09 01:54:28;;;;;;;0.63;0.63;;;17.70;71.80;;;;;;5003943;28;20271;-73
2021/09/09 01:56:55;;;;;;;0.00;0.00;;;17.70;71.80;;;;;;5002317;28;20224;-73
2021/09/09 01:59:22;;;;;;;0.67;0.67;;;17.70;71.90;;;;;;5004930;28;20223;-73
2021/09/09 02:01:49;;;;;;;0.10;0.10;;;17.70;72.00;;;;;;4994702;28;20226;-73
2021/09/09 02:04:16;;;;;;;0.20;0.20;;;17.60;72.20;;;;;;5004011;28;20219;-73
2021/09/09 02:06:43;;;;;;;0.10;0.10;;;17.60;72.30;;;;;;5003116;28;20240;-73
2021/09/09 02:09:10;;;;;;;0.10;0.10;;;17.60;72.50;;;;;;5002482;28;20611;-73
2021/09/09 02:11:37;;;;;;;0.10;0.10;;;17.60;72.60;;;;;;5000960;28;20227;-73
2021/09/09 02:14:04;;;;;;;0.50;0.50;;;17.50;72.60;;;;;;5004578;28;20215;-73
2021/09/09 02:16:31;;;;;;;0.10;0.10;;;17.50;72.70;;;;;;5001705;28;20606;-73
2021/09/09 02:18:58;;;;;;;0.10;0.10;;;17.50;73.00;;;;;;5004388;28;20266;-73
2021/09/09 02:21:25;;;;;;;0.20;0.20;;;17.50;73.20;;;;;;5013224;28;20212;-73
2021/09/09 02:23:52;;;;;;;0.00;0.00;;;17.40;73.30;;;;;;5006591;28;20212;-73
2021/09/09 02:26:20;;;;;;;2.70;1.63;;;17.40;73.30;;;;;;5015248;28;20546;-73
2021/09/09 02:28:47;;;;;;;0.40;0.30;;;17.40;73.30;;;;;;5014750;28;20223;-73
2021/09/09 02:31:15;;;;;;;0.47;0.47;;;17.40;73.50;;;;;;5007854;28;20215;-73
2021/09/09 02:33:42;;;;;;;0.10;0.10;;;17.30;73.90;;;;;;5003411;28;20216;-73
2021/09/09 02:36:09;;;;;;;0.20;0.20;;;17.30;74.20;;;;;;5012065;28;20215;-73
2021/09/09 02:38:36;;;;;;;0.03;0.03;;;17.30;74.20;;;;;;5008837;28;20211;-73
2021/09/09 02:41:04;;;;;;;0.10;0.10;;;17.30;74.20;;;;;;5011863;28;20219;-73
2021/09/09 02:43:31;;;;;;;0.10;0.10;;;17.30;74.10;;;;;;5008852;28;20274;-73
2021/09/09 02:45:58;;;;;;;0.37;0.37;;;17.30;74.00;;;;;;5007951;28;20204;-73
2021/09/09 02:48:25;;;;;;;0.10;0.10;;;17.30;73.80;;;;;;5006279;28;20236;-73
2021/09/09 02:50:53;;;;;;;0.10;0.10;;;17.30;73.80;;;;;;5009797;28;20519;-73
2021/09/09 02:53:20;;;;;;;0.10;0.10;;;17.30;74.00;;;;;;5005418;28;20208;-73
2021/09/09 02:55:47;;;;;;;0.10;0.10;;;17.30;74.10;;;;;;5007124;28;20216;-73
2021/09/09 02:58:14;;;;;;;1.23;1.17;;;17.30;74.20;;;;;;5005685;28;20212;-73
2021/09/09 03:00:41;;;;;;;0.00;0.00;;;17.30;74.20;;;;;;5005996;28;20211;-73
2021/09/09 03:03:08;;;;;;;0.10;0.10;;;17.20;74.40;;;;;;5001689;28;20290;-73
2021/09/09 03:05:36;;;;;;;0.20;0.20;;;17.20;74.50;;;;;;5003997;28;20319;-73
2021/09/09 03:08:03;;;;;;;0.63;0.63;;;17.20;74.70;;;;;;4998847;28;20227;-73
2021/09/09 03:10:31;;;;;;;0.60;0.60;;;17.20;74.50;;;;;;5000139;28;20246;-73
2021/09/09 03:12:58;;;;;;;0.20;0.20;;;17.10;74.70;;;;;;5003395;28;20267;-73
2021/09/09 03:15:25;;;;;;;0.10;0.10;;;17.10;74.70;;;;;;5000998;28;20215;-73
2021/09/09 03:17:52;;;;;;;0.10;0.10;;;17.10;74.60;;;;;;5004143;28;20226;-73
2021/09/09 03:20:20;;;;;;;0.10;0.10;;;17.10;74.50;;;;;;5001136;28;20212;-73
2021/09/09 03:22:46;;;;;;;0.10;0.10;;;17.20;74.50;;;;;;5002588;28;20540;-73
2021/09/09 03:25:16;;;;;;;0.10;0.10;;;17.20;74.40;;;;;;5001984;28;20242;-73
2021/09/09 03:27:43;;;;;;;0.10;0.10;;;17.20;74.30;;;;;;5000797;28;20609;-73
2021/09/09 03:30:11;;;;;;;0.10;0.10;;;17.20;74.30;;;;;;5003474;28;20674;-73
2021/09/09 03:32:38;;;;;;;0.10;0.10;;;17.20;74.50;;;;;;5004302;28;20617;-73
2021/09/09 03:35:06;;;;;;;0.10;0.10;;;17.20;74.50;;;;;;5001340;28;20209;-73
2021/09/09 03:37:33;;;;;;;0.10;0.10;;;17.20;74.50;;;;;;5003423;28;20227;-73
2021/09/09 03:40:00;;;;;;;0.40;0.40;;;17.20;74.50;;;;;;5002683;28;20220;-73
2021/09/09 03:42:27;;;;;;;0.10;0.10;;;17.20;75.10;;;;;;5002849;28;20205;-73
2021/09/09 03:44:54;;;;;;;0.10;0.10;;;17.20;74.50;;;;;;5004178;28;20239;-73
2021/09/09 03:47:21;;;;;;;0.00;0.00;;;17.20;74.60;;;;;;5003266;28;20549;-73
2021/09/09 03:49:48;;;;;;;0.00;0.00;;;17.20;74.70;;;;;;5007464;28;20227;-73
2021/09/09 03:52:15;;;;;;;0.10;0.10;;;17.20;74.80;;;;;;5004409;28;20220;-73
2021/09/09 03:54:42;;;;;;;0.00;0.00;;;17.30;75.00;;;;;;5006167;28;20223;-73
2021/09/09 03:57:09;;;;;;;0.30;0.30;;;17.30;75.00;;;;;;5005645;28;20227;-73
2021/09/09 03:59:36;;;;;;;1.50;1.40;;;17.30;74.90;;;;;;5004293;28;20513;-73
2021/09/09 04:02:04;;;;;;;0.00;0.00;;;17.30;75.00;;;;;;5003948;28;20283;-73
2021/09/09 04:04:31;;;;;;;0.10;0.10;;;17.20;75.10;;;;;;5007705;28;20224;-73
2021/09/09 04:06:58;;;;;;;0.10;0.10;;;17.20;75.40;;;;;;5007324;28;20216;-73
2021/09/09 04:09:26;;;;;;;0.10;0.10;;;17.20;75.60;;;;;;5005162;28;20212;-73
2021/09/09 04:11:54;;;;;;;0.10;0.10;;;17.10;75.70;;;;;;5003229;28;20216;-73
2021/09/09 04:14:21;;;;;;;0.13;0.13;;;17.20;75.90;;;;;;5006301;28;20413;-73
2021/09/09 04:16:48;;;;;;;0.10;0.10;;;17.20;76.00;;;;;;5003168;28;20278;-73
2021/09/09 04:19:15;;;;;;;0.10;0.10;;;17.20;76.00;;;;;;5004581;28;20339;-73
2021/09/09 04:21:42;;;;;;;0.10;0.10;;;17.20;76.10;;;;;;5005474;28;20211;-72
2021/09/09 04:24:11;;;;;;;0.20;0.20;;;17.10;76.10;;;;;;5003790;28;20267;-72
2021/09/09 04:26:38;;;;;;;0.20;0.20;;;17.00;76.10;;;;;;5005309;28;20286;-72
2021/09/09 04:29:06;;;;;;;0.20;0.20;;;17.00;76.30;;;;;;5005648;28;20330;-72
2021/09/09 04:31:34;;;;;;;0.30;0.30;;;17.00;76.50;;;;;;5002925;28;20274;-72
2021/09/09 04:34:01;;;;;;;0.30;0.30;;;17.00;76.60;;;;;;5003562;28;20223;-72
2021/09/09 04:36:28;;;;;;;0.10;0.10;;;17.00;76.70;;;;;;5005071;28;20221;-72
2021/09/09 04:38:56;;;;;;;0.20;0.20;;;16.90;76.80;;;;;;5005953;28;20303;-72
2021/09/09 04:41:23;;;;;;;0.10;0.10;;;16.90;76.80;;;;;;5002821;28;20564;-72
2021/09/09 04:43:50;;;;;;;0.10;0.10;;;16.90;76.70;;;;;;5013319;28;20631;-72
2021/09/09 04:46:17;;;;;;;0.30;0.30;;;16.90;76.30;;;;;;5002536;28;20219;-72
2021/09/09 04:48:44;;;;;;;0.10;0.10;;;16.90;75.80;;;;;;5004869;28;20327;-72
2021/09/09 04:51:12;;;;;;;0.10;0.10;;;16.80;75.20;;;;;;5004147;28;20216;-72
2021/09/09 04:53:39;;;;;;;0.20;0.20;;;16.80;74.90;;;;;;5013536;28;20280;-72
2021/09/09 04:56:06;;;;;;;0.00;0.00;;;16.80;74.90;;;;;;5002215;28;20307;-72
2021/09/09 04:58:33;;;;;;;0.37;0.37;;;16.70;74.70;;;;;;5004247;28;20303;-72
2021/09/09 05:01:00;;;;;;;0.67;0.67;;;16.70;74.70;;;;;;5012607;28;20282;-72
2021/09/09 05:03:28;;;;;;;0.13;0.13;;;16.70;74.70;;;;;;5003345;28;20275;-72
2021/09/09 05:05:56;;;;;;;3.13;2.17;;;16.70;74.60;;;;;;5012386;28;20238;-72
2021/09/09 05:08:23;;;;;;;0.00;0.00;;;16.70;74.40;;;;;;5003679;28;20240;-72
2021/09/09 05:10:50;;;;;;;0.00;0.00;;;16.70;74.30;;;;;;5004511;28;20629;-72
2021/09/09 05:13:17;;;;;;;0.10;0.10;;;16.80;74.30;;;;;;5011674;28;20539;-72
2021/09/09 05:15:44;;;;;;;0.10;0.10;;;16.90;74.20;;;;;;5001546;28;20217;-72
2021/09/09 05:18:11;;;;;;;0.40;0.40;;;16.90;73.90;;;;;;5004380;28;20215;-72
2021/09/09 05:20:38;;;;;;;0.10;0.10;;;17.00;73.90;;;;;;5003656;28;20596;-72
2021/09/09 05:23:05;;;;;;;0.03;0.03;;;17.20;73.80;;;;;;5003891;28;20719;-73
2021/09/09 05:25:32;;;;;;;0.10;0.10;;;17.40;73.30;;;;;;5004108;28;20212;-73
2021/09/09 05:27:59;;;;;;;0.10;0.10;;;17.60;72.80;;;;;;5002567;28;20244;-73
2021/09/09 05:30:28;;;;;;;0.10;0.10;;;17.70;72.40;;;;;;5011070;28;20640;-73
2021/09/09 05:32:55;;;;;;;0.10;0.10;;;17.80;72.00;;;;;;5004755;28;20250;-73
2021/09/09 05:35:22;;;;;;;0.10;0.10;;;17.90;71.80;;;;;;5001947;28;20219;-73
2021/09/09 05:37:49;;;;;;;0.10;0.10;;;18.00;71.60;;;;;;5004418;28;20495;-73
2021/09/09 05:40:16;;;;;;;0.00;0.00;;;18.00;71.40;;;;;;5003184;28;20583;-73
2021/09/09 05:42:43;;;;;;;0.00;0.00;;;18.10;71.30;;;;;;5007118;28;20207;-73
2021/09/09 05:45:10;;;;;;;0.10;0.10;;;18.20;71.00;;;;;;5001250;28;20251;-73
2021/09/09 05:47:38;;;;;;;0.00;0.00;;;18.30;70.70;;;;;;5002640;28;20240;-73
2021/09/09 05:50:06;;;;;;;0.00;0.00;;;18.50;70.30;;;;;;5003047;28;20636;-73
2021/09/09 05:52:33;;;;;;;0.20;0.20;;;18.60;69.80;;;;;;5001392;28;20216;-73
2021/09/09 05:55:00;;;;;;;0.10;0.10;;;18.80;69.60;;;;;;5004527;28;20212;-73
2021/09/09 05:57:28;;;;;;;0.63;0.63;;;18.90;69.00;;;;;;5001595;28;20203;-73
2021/09/09 05:59:56;;;;;;;0.10;0.10;;;19.10;68.90;;;;;;5005457;28;20215;-73
2021/09/09 06:02:27;;;;;;;0.10;0.10;;;19.20;68.70;;;;;;5002381;28;20212;-73
2021/09/09 06:04:59;;;;;;;0.00;0.00;;;19.40;68.30;;;;;;5012214;28;20243;-73
2021/09/09 06:07:29;;;;;;;0.70;0.70;;;19.60;68.20;;;;;;5000235;28;20448;-73
2021/09/09 06:09:56;;;;;;;0.07;0.07;;;19.70;66.90;;;;;;5003680;28;20208;-73
2021/09/09 06:12:26;;;;;;;0.80;0.80;;;19.90;66.50;;;;;;5003320;28;20597;-73
2021/09/09 06:14:54;;;;;;;0.37;0.37;;;20.00;65.80;;;;;;5001836;28;20299;-73
2021/09/09 06:17:21;;;;;;;0.00;0.00;;;20.20;65.70;;;;;;5005672;28;20215;-73
2021/09/09 06:19:48;;;;;;;0.23;0.23;;;20.50;65.40;;;;;;5003828;28;20226;-73
2021/09/09 06:22:15;;;;;;;0.10;0.10;;;20.70;64.80;;;;;;5003378;28;20258;-73
2021/09/09 06:24:43;;;;;;;0.30;0.30;;;20.90;64.30;;;;;;5002306;28;20303;-73
2021/09/09 06:27:12;;;;;;;0.10;0.10;;;21.10;63.80;;;;;;5001319;28;20222;-73
2021/09/09 06:29:39;;;;;;;0.07;0.07;;;21.30;63.30;;;;;;5004132;28;20232;-73
2021/09/09 06:32:06;;;;;;;0.27;0.27;;;21.50;62.70;;;;;;5002939;28;20547;-73
2021/09/09 06:34:33;;;;;;;0.10;0.10;;;21.60;62.10;;;;;;5001071;28;20271;-73
2021/09/09 06:37:00;;;;;;;0.00;0.00;;;21.60;61.70;;;;;;5003429;28;20294;-73
2021/09/09 06:39:27;;;;;;;0.47;0.47;;;21.70;61.30;;;;;;5000643;28;20216;-73
2021/09/09 06:41:54;;;;;;;0.10;0.10;;;21.80;61.10;;;;;;5004758;28;20722;-73
2021/09/09 06:44:22;;;;;;;0.73;0.73;;;21.90;60.80;;;;;;5003867;28;20250;-73
2021/09/09 06:46:49;;;;;;;0.10;0.10;;;22.00;60.20;;;;;;5003660;28;20219;-73
2021/09/09 06:49:16;;;;;;;0.00;0.00;;;22.00;60.00;;;;;;5001020;28;20243;-73
2021/09/09 06:51:42;;;;;;;0.53;0.53;;;21.90;59.90;;;;;;5010379;28;20632;-73
2021/09/09 06:54:09;;;;;;;0.10;0.10;;;22.00;60.00;;;;;;5002700;28;20225;-73
2021/09/09 06:56:36;;;;;;;0.10;0.10;;;22.00;60.00;;;;;;4999012;28;20215;-73
2021/09/09 06:59:03;;;;;;;0.10;0.10;;;22.10;60.00;;;;;;5003651;28;20270;-73
2021/09/09 07:01:30;;;;;;;0.50;0.50;;;22.20;60.10;;;;;;4998315;28;20216;-73
2021/09/09 07:03:57;;;;;;;1.10;1.03;;;22.30;59.50;;;;;;5001277;28;20220;-73
2021/09/09 07:06:25;;;;;;;0.20;0.20;;;22.40;57.10;;;;;;5004231;28;20243;-74
2021/09/09 07:08:52;;;;;;;0.20;0.20;;;22.40;56.50;;;;;;5002713;28;20313;-74
2021/09/09 07:11:20;;;;;;;0.40;0.40;;;22.50;56.10;;;;;;4997395;28;20296;-74
2021/09/09 07:13:47;;;;;;;0.13;0.13;;;22.50;55.40;;;;;;5002880;28;20266;-74
2021/09/09 07:16:14;;;;;;;0.20;0.20;;;22.50;56.00;;;;;;4999492;28;20216;-73
2021/09/09 07:18:40;;;;;;;0.00;0.00;;;22.60;56.00;;;;;;5000359;28;20213;-73
2021/09/09 07:21:07;;;;;;;0.10;0.10;;;22.70;56.10;;;;;;5003098;28;20247;-73
2021/09/09 07:23:34;;;;;;;0.10;0.10;;;22.80;56.20;;;;;;5005529;28;20208;-73
2021/09/09 07:26:01;;;;;;;0.00;0.00;;;22.80;55.90;;;;;;5003935;28;20219;-73
2021/09/09 07:28:28;;;;;;;0.47;0.47;;;22.80;55.90;;;;;;5003681;28;20675;-73
2021/09/09 07:30:56;;;;;;;0.23;0.23;;;22.90;55.10;;;;;;5006856;28;20219;-73
2021/09/09 07:33:24;;;;;;;0.00;0.00;;;23.00;54.60;;;;;;5003093;28;20215;-73
2021/09/09 07:35:51;;;;;;;0.00;0.00;;;23.00;54.40;;;;;;5004481;28;20208;-74
2021/09/09 07:38:18;;;;;;;0.20;0.20;;;23.10;54.10;;;;;;5005440;28;20274;-74
2021/09/09 07:40:45;;;;;;;0.20;0.20;;;23.20;54.10;;;;;;5001240;28;20283;-74
2021/09/09 07:43:12;;;;;;;0.20;0.20;;;23.40;53.90;;;;;;5003837;28;20529;-73
2021/09/09 07:45:40;;;;;;;0.10;0.10;;;23.50;53.40;;;;;;5007218;28;20258;-74
2021/09/09 07:48:07;;;;;;;0.20;0.20;;;23.60;53.10;;;;;;5007375;28;20246;-74
2021/09/09 07:50:34;;;;;;;0.07;0.07;;;23.70;53.40;;;;;;5008485;28;20224;-73
2021/09/09 07:53:01;;;;;;;0.10;0.10;;;23.90;53.10;;;;;;5000211;28;20655;-73
2021/09/09 07:55:29;;;;;;;0.70;0.70;;;24.10;52.70;;;;;;4998388;28;20220;-73
2021/09/09 07:57:56;;;;;;;0.10;0.10;;;24.20;52.00;;;;;;5004492;28;20204;-73
2021/09/09 08:00:23;;;;;;;0.10;0.10;;;24.40;51.90;;;;;;5005049;28;20271;-74
2021/09/09 08:02:50;;;;;;;0.10;0.10;;;24.60;50.90;;;;;;5009567;28;20205;-73
2021/09/09 08:05:17;;;;;;;0.10;0.10;;;24.70;51.00;;;;;;5004772;28;20234;-73
2021/09/09 08:07:45;;;;;;;0.20;0.20;;;24.90;51.00;;;;;;5004004;28;20278;-73
2021/09/09 08:10:16;;;;;;;0.00;0.00;;;25.00;50.60;;;;;;5006307;28;20622;-73
2021/09/09 08:12:48;;;;;;;0.77;0.77;;;25.20;49.80;;;;;;5002808;28;20618;-73
2021/09/09 08:15:17;;;;;;;0.10;0.10;;;25.30;49.70;;;;;;5004701;28;20258;-73
2021/09/09 08:17:45;;;;;;;0.47;0.47;;;25.40;49.30;;;;;;5005603;28;20527;-74
2021/09/09 08:20:13;;;;;;;0.03;0.03;;;25.30;49.60;;;;;;5002869;28;20531;-73
2021/09/09 08:22:41;;;;;;;0.60;0.60;;;25.40;49.80;;;;;;5004151;28;20205;-73
2021/09/09 08:25:10;;;;;;;0.00;0.00;;;25.50;49.80;;;;;;5007157;28;20212;-73
2021/09/09 08:27:38;;;;;;;0.27;0.27;;;25.70;49.80;;;;;;5009069;28;20270;-73
2021/09/09 08:30:06;;;;;;;3.10;0.33;;;25.90;49.50;;;;;;5005874;28;20232;-73
2021/09/09 08:32:34;;;;;;;0.67;0.67;;;26.20;49.70;;;;;;5002486;28;20219;-73
2021/09/09 08:35:01;;;;;;;0.27;0.27;;;26.40;49.50;;;;;;5006910;28;20298;-73
2021/09/09 08:37:29;;;;;;;1.10;1.10;;;26.50;49.60;;;;;;5002008;28;20215;-73
2021/09/09 08:39:56;;;;;;;3.43;1.13;;;26.80;49.40;;;;;;5004432;28;20215;-73
2021/09/09 08:42:23;;;;;;;1.67;1.20;;;26.90;49.70;;;;;;5000863;28;20572;-73
2021/09/09 08:44:50;;;;;;;0.70;0.70;;;27.10;49.50;;;;;;5001346;28;20247;-73
2021/09/09 08:47:18;;;;;;;5.83;1.13;;;27.30;48.70;;;;;;4999593;28;20630;-73
2021/09/09 08:49:45;;;;;;;1.10;0.93;;;27.40;48.90;;;;;;5004076;28;20977;-73
2021/09/09 08:52:12;;;;;;;0.50;0.50;;;27.60;49.20;;;;;;5005293;28;20534;-73
2021/09/09 08:54:39;;;;;;;0.83;0.83;;;27.80;49.50;;;;;;5006746;28;20636;-73
2021/09/09 08:57:07;;;;;;;1.77;1.50;;;27.90;49.20;;;;;;5002846;28;20259;-73
2021/09/09 08:59:35;;;;;;;4.53;2.50;;;28.10;49.40;;;;;;5009961;28;20213;-73
2021/09/09 09:02:03;;;;;;;0.50;0.50;;;28.10;48.90;;;;;;5006518;28;20216;-73
2021/09/09 09:04:33;;;;;;;4.53;2.37;;;28.30;49.00;;;;;;5001353;28;20220;-73
2021/09/09 09:07:01;;;;;;;185.33;6.80;;;28.40;48.10;;;;;;5001995;28;20215;-73
2021/09/09 09:09:36;;;;;;;140.73;13.70;;;28.50;47.40;;;;;;4999407;28;20231;-73
2021/09/09 09:12:05;;;;;;;65.10;10.03;;;28.60;47.40;;;;;;5003144;28;20219;-73
2021/09/09 09:14:33;;;;;;;0.93;0.93;;;28.70;45.10;;;;;;5004914;28;20212;-73
2021/09/09 09:17:04;;;;;;;1.90;1.63;;;28.60;45.20;;;;;;5004792;28;20216;-73
2021/09/09 09:19:35;;;;;;;0.77;0.77;;;28.60;45.40;;;;;;5000506;28;20302;-73
2021/09/09 09:22:08;;;;;;;3.00;0.90;;;28.80;45.80;;;;;;5000225;28;20613;-73
2021/09/09 09:24:51;;;;;;;2.33;1.63;;;29.00;45.80;;;;;;5002565;28;20243;-73
2021/09/09 09:27:22;;;;;;;10.63;1.93;;;29.30;45.60;;;;;;5003837;28;20644;-73
2021/09/09 09:30:08;;;;;;;1224.43;999.90;;;29.50;45.20;;;;;;5008424;28;20236;-73
2021/09/09 09:32:45;;;;;;;1038.50;938.70;;;29.70;43.20;;;;;;4999106;28;20220;-73
2021/09/09 09:35:22;;;;;;;1077.07;973.03;;;29.60;42.30;;;;;;5002422;28;20268;-73
2021/09/09 09:38:07;;;;;;;1010.03;919.50;;;29.60;42.10;;;;;;4998598;28;20208;-73
2021/09/09 09:40:42;;;;;;;1003.83;920.07;;;29.70;42.00;;;;;;5001494;28;20231;-73
2021/09/09 09:43:11;;;;;;;971.87;891.43;;;29.70;39.90;;;;;;5000892;28;20343;-73
2021/09/09 09:45:52;;;;;;;986.80;907.40;;;29.70;40.20;;;;;;5002217;28;20785;-73
2021/09/09 09:48:27;;;;;;;938.83;863.30;;;29.90;40.10;;;;;;4999333;28;20227;-73
2021/09/09 09:50:54;;;;;;;932.30;855.43;;;30.20;39.80;;;;;;5003500;28;20219;-73
2021/09/09 09:53:21;;;;;;;1538.97;521.80;;;30.20;39.10;;;;;;4999809;28;20216;-73
2021/09/09 09:55:50;;;;;;;199.50;11.00;;;30.10;39.20;;;;;;5001122;28;20219;-73
2021/09/09 09:58:17;;;;;;;1.80;1.70;;;29.90;39.40;;;;;;5001363;28;20566;-73
2021/09/09 10:00:44;;;;;;;0.67;0.67;;;29.90;38.90;;;;;;5003853;28;20212;-72
2021/09/09 10:03:14;;;;;;;1.33;1.23;;;29.80;39.00;;;;;;5000757;28;20891;-73
2021/09/09 10:05:43;;;;;;;8.97;1.90;;;29.80;39.20;;;;;;5003760;28;20208;-73
2021/09/09 10:08:10;;;;;;;0.93;0.93;;;29.80;38.60;;;;;;5001744;28;20216;-73
2021/09/09 10:10:38;;;;;;;1.20;1.13;;;29.90;38.70;;;;;;5003856;28;20263;-72
2021/09/09 10:13:05;;;;;;;3.57;1.47;;;29.90;37.90;;;;;;5000920;28;20640;-73
2021/09/09 10:15:36;;;;;;;11.77;1.30;;;29.80;38.40;;;;;;5003991;28;20598;-73
2021/09/09 10:18:05;;;;;;;32.57;3.37;;;29.80;38.70;;;;;;5003760;28;20298;-73
2021/09/09 10:20:33;;;;;;;10.60;1.70;;;29.90;38.10;;;;;;5000185;28;20255;-72
2021/09/09 10:23:14;;;;;;;2.80;2.10;;;30.10;38.50;;;;;;5001756;28;20231;-73
2021/09/09 10:25:49;;;;;;;1.80;1.43;;;30.20;38.30;;;;;;5000857;28;20314;-73
2021/09/09 10:31:11;;;;;;;8.23;1.50;;;30.60;37.50;;;;;;5001570;28;20299;-73
2021/09/09 10:33:46;;;;;;;1.47;1.37;;;30.80;37.50;;;;;;5002319;28;20281;-73
2021/09/09 10:36:40;;;;;;;2.37;1.57;;;31.00;37.60;;;;;;5002288;28;20243;-73
2021/09/09 10:39:11;;;;;;;5.33;2.37;;;31.00;37.10;;;;;;5003234;28;20262;-73
2021/09/09 10:41:39;;;;;;;71.40;5.60;;;30.90;36.70;;;;;;5003014;28;20216;-73
2021/09/09 10:44:08;;;;;;;5.67;2.30;;;30.90;36.60;;;;;;5012640;28;20255;-73
2021/09/09 10:46:38;;;;;;;2.43;1.67;;;31.00;36.70;;;;;;5002775;28;20677;-73
2021/09/09 10:49:07;;;;;;;1.47;1.33;;;31.00;36.50;;;;;;5008737;28;20244;-72
2021/09/09 10:51:35;;;;;;;2.20;1.80;;;31.00;36.40;;;;;;5001937;28;20283;-73
2021/09/09 10:54:03;;;;;;;109.83;6.03;;;31.00;36.10;;;;;;5009967;28;20212;-73
2021/09/09 10:56:36;;;;;;;16.70;3.90;;;31.00;36.10;;;;;;4999738;28;20212;-73
2021/09/09 10:59:19;;;;;;;1.30;1.20;;;30.90;35.90;;;;;;5003019;28;20267;-73
2021/09/09 11:01:48;;;;;;;1.70;1.60;;;31.00;35.70;;;;;;5001245;28;20257;-73
2021/09/09 11:04:25;;;;;;;1.07;0.97;;;30.90;33.10;;;;;;4999689;28;20217;-73
2021/09/09 11:06:54;;;;;;;10.00;1.67;;;30.80;32.90;;;;;;5002630;28;20224;-73
2021/09/09 11:09:21;;;;;;;2.23;1.53;;;30.70;33.70;;;;;;5002595;28;20224;-73
2021/09/09 11:12:04;;;;;;;4.63;1.37;;;30.60;34.00;;;;;;5000944;28;20220;-73
2021/09/09 11:14:32;;;;;;;1.17;1.13;;;30.60;34.30;;;;;;5001170;28;20216;-73
2021/09/09 11:17:00;;;;;;;1.00;1.00;;;30.70;34.60;;;;;;5010343;28;20285;-73
2021/09/09 11:19:28;;;;;;;1.77;1.63;;;30.80;35.00;;;;;;4998095;28;20684;-73
2021/09/09 11:22:00;;;;;;;1.73;1.40;;;31.00;34.50;;;;;;5001632;28;20492;-73
2021/09/09 11:24:33;;;;;;;1.77;1.43;;;31.00;34.50;;;;;;5004277;28;20228;-73
2021/09/09 11:27:00;;;;;;;1.47;1.37;;;31.00;34.70;;;;;;5001481;28;20462;-73
2021/09/09 11:29:27;;;;;;;2.07;1.37;;;30.80;34.60;;;;;;5001024;28;20577;-73
2021/09/09 11:31:56;;;;;;;2.03;1.37;;;30.90;35.00;;;;;;5002872;28;20219;-73
2021/09/09 11:34:25;;;;;;;0.93;0.90;;;30.90;34.10;;;;;;4992297;28;20216;-73
2021/09/09 11:36:55;;;;;;;5.83;1.83;;;30.90;33.80;;;;;;4991947;28;20212;-73
2021/09/09 11:39:24;;;;;;;1.57;1.47;;;31.00;34.30;;;;;;4992221;28;20553;-73
2021/09/09 11:41:53;;;;;;;1.93;1.83;;;31.10;34.30;;;;;;4996042;28;20219;-73
2021/09/09 11:44:34;;;;;;;0.87;0.87;;;31.30;34.10;;;;;;5000880;28;20241;-73
2021/09/09 11:47:20;;;;;;;1.27;1.17;;;31.40;32.90;;;;;;4999266;28;20274;-73
2021/09/09 11:49:48;;;;;;;1.13;0.97;;;31.40;32.20;;;;;;5002744;28;20232;-73
2021/09/09 11:52:15;;;;;;;1.67;1.53;;;31.50;32.70;;;;;;5001783;28;20216;-73
2021/09/09 11:54:43;;;;;;;2.10;1.37;;;31.60;32.70;;;;;;5003957;28;20285;-73
2021/09/09 11:57:12;;;;;;;3.37;1.50;;;31.70;32.40;;;;;;5001115;28;20212;-73
2021/09/09 11:59:51;;;;;;;2.13;1.60;;;31.70;32.20;;;;;;5000273;28;20728;-73
2021/09/09 12:02:23;;;;;;;2.83;1.37;;;31.70;32.00;;;;;;5001638;28;20227;-74
2021/09/09 12:04:51;;;;;;;1.10;1.00;;;31.70;32.30;;;;;;5004150;28;20212;-74
2021/09/09 12:07:24;;;;;;;1.13;1.03;;;31.80;32.40;;;;;;5002059;28;20223;-74
2021/09/09 12:09:58;;;;;;;1.23;1.13;;;31.90;32.60;;;;;;5003350;28;20241;-73
2021/09/09 12:12:30;;;;;;;2.07;1.53;;;32.00;32.20;;;;;;5013654;28;20268;-73
2021/09/09 12:15:01;;;;;;;2.60;1.20;;;32.00;31.00;;;;;;5005427;28;20637;-73
2021/09/09 12:17:29;;;;;;;1.83;1.23;;;31.80;30.20;;;;;;5005502;28;20255;-73
2021/09/09 12:20:09;;;;;;;4.27;2.00;;;31.60;30.30;;;;;;5006722;28;20289;-73
2021/09/09 12:22:46;;;;;;;8.03;2.63;;;31.40;31.10;;;;;;5013819;28;20238;-73
2021/09/09 12:25:29;;;;;;;17.40;1.40;;;31.30;30.10;;;;;;5004052;28;20725;-74
2021/09/09 12:28:15;;;;;;;0.97;0.87;;;31.10;31.10;;;;;;4995320;28;20212;-73
2021/09/09 12:30:51;;;;;;;1.73;1.63;;;30.90;30.50;;;;;;5001832;28;20243;-73
2021/09/09 12:33:25;;;;;;;1.17;1.07;;;30.80;31.40;;;;;;4995290;28;20218;-73
2021/09/09 12:36:12;;;;;;;0.90;0.80;;;30.70;31.50;;;;;;5001359;28;20216;-73
2021/09/09 12:38:47;;;;;;;3.10;1.70;;;30.70;31.60;;;;;;5002596;28;20263;-73
2021/09/09 12:41:17;;;;;;;3.13;1.83;;;30.80;31.80;;;;;;5002946;28;20223;-74
2021/09/09 12:43:46;;;;;;;2.30;1.60;;;30.90;31.70;;;;;;5008139;28;20318;-74
2021/09/09 12:46:25;;;;;;;1.03;0.97;;;31.10;31.50;;;;;;5003475;28;20664;-74
2021/09/09 12:49:24;;;;;;;2.93;1.30;;;31.20;31.20;;;;;;5009241;28;20575;-74
2021/09/09 12:51:57;;;;;;;0.80;0.80;;;31.20;31.30;;;;;;5005957;28;20660;-73
2021/09/09 12:54:24;;;;;;;2.70;1.57;;;31.40;31.60;;;;;;5004530;28;20243;-73
2021/09/09 12:56:56;;;;;;;1.80;1.63;;;31.40;30.90;;;;;;5010246;28;20302;-73